createdAt,value
2017-10-07T00:00:35.213Z,0
2017-10-07T00:01:36.676Z,0
2017-10-07T00:02:58.176Z,0
2017-10-07T00:03:59.575Z,0
2017-10-07T00:05:21.085Z,0
2017-10-07T00:06:22.484Z,0
2017-10-07T00:07:43.975Z,0
2017-10-07T00:08:45.374Z,0
2017-10-07T00:10:06.882Z,0
2017-10-07T00:11:08.285Z,0
2017-10-07T00:12:29.773Z,0
2017-10-07T00:13:31.171Z,0
2017-10-07T00:14:52.780Z,0
2017-10-07T00:15:54.182Z,0
2017-10-07T00:17:15.737Z,0
2017-10-07T00:18:17.138Z,0
2017-10-07T00:19:38.648Z,0
2017-10-07T00:20:40.049Z,0
2017-10-07T00:22:01.535Z,0
2017-10-07T00:23:02.938Z,0
2017-10-07T00:24:24.444Z,0
2017-10-07T00:25:25.844Z,0
2017-10-07T00:26:47.328Z,0
2017-10-07T00:27:48.736Z,0
2017-10-07T00:29:10.226Z,0
2017-10-07T00:30:11.703Z,0
2017-10-07T00:31:33.209Z,0
2017-10-07T00:32:34.712Z,0
2017-10-07T00:33:56.223Z,0
2017-10-07T00:34:57.623Z,0
2017-10-07T00:36:19.217Z,0
2017-10-07T00:37:20.656Z,0
2017-10-07T00:38:42.150Z,0
2017-10-07T00:39:43.546Z,0
2017-10-07T00:41:05.115Z,0
2017-10-07T00:42:06.601Z,0
2017-10-07T00:43:28.090Z,0
2017-10-07T00:44:29.490Z,0
2017-10-07T00:45:51.000Z,0
2017-10-07T00:46:52.402Z,0
2017-10-07T00:48:13.892Z,0
2017-10-07T00:49:15.290Z,0
2017-10-07T00:50:36.799Z,0
2017-10-07T00:51:38.199Z,0
2017-10-07T00:52:59.683Z,0
2017-10-07T00:54:01.082Z,0
2017-10-07T00:55:22.589Z,0
2017-10-07T00:56:23.988Z,0
2017-10-07T00:57:45.477Z,0
2017-10-07T00:58:46.879Z,0
2017-10-07T01:00:08.384Z,0
2017-10-07T01:01:09.786Z,0
2017-10-07T01:02:31.274Z,0
2017-10-07T01:03:32.993Z,0
2017-10-07T01:04:54.540Z,0
2017-10-07T01:05:55.937Z,0
2017-10-07T01:07:17.425Z,0
2017-10-07T01:08:18.825Z,0
2017-10-07T01:09:40.332Z,0
2017-10-07T01:10:41.734Z,0
2017-10-07T01:12:03.224Z,0
2017-10-07T01:13:04.622Z,0
2017-10-07T01:14:26.117Z,0
2017-10-07T01:15:27.518Z,0
2017-10-07T01:16:49.026Z,0
2017-10-07T01:17:50.427Z,0
2017-10-07T01:19:11.917Z,0
2017-10-07T01:20:13.317Z,0
2017-10-07T01:21:34.826Z,0
2017-10-07T01:22:36.227Z,0
2017-10-07T01:23:57.712Z,0
2017-10-07T01:24:59.112Z,0
2017-10-07T01:26:20.619Z,0
2017-10-07T01:27:22.021Z,0
2017-10-07T01:28:43.509Z,0
2017-10-07T01:29:44.908Z,0
2017-10-07T01:31:06.414Z,0
2017-10-07T01:32:07.817Z,0
2017-10-07T01:33:29.299Z,0
2017-10-07T01:34:30.700Z,0
2017-10-07T01:35:52.206Z,0
2017-10-07T01:36:53.610Z,0
2017-10-07T01:38:15.091Z,0
2017-10-07T01:39:16.493Z,0
2017-10-07T01:40:38.000Z,0
2017-10-07T01:41:39.402Z,0
2017-10-07T01:43:00.890Z,0
2017-10-07T01:44:02.292Z,0
2017-10-07T01:45:23.797Z,0
2017-10-07T01:46:25.197Z,0
2017-10-07T01:47:46.688Z,0
2017-10-07T01:48:48.087Z,0
2017-10-07T01:50:09.591Z,0
2017-10-07T01:51:10.993Z,0
2017-10-07T01:52:32.482Z,0
2017-10-07T01:53:33.882Z,0
2017-10-07T01:54:55.370Z,0
2017-10-07T01:55:56.768Z,0
2017-10-07T01:57:18.277Z,0
2017-10-07T01:58:19.678Z,0
2017-10-07T01:59:41.162Z,0
2017-10-07T02:00:42.562Z,0
2017-10-07T02:02:04.069Z,0
2017-10-07T02:03:05.469Z,0
2017-10-07T02:04:26.960Z,0
2017-10-07T02:05:28.638Z,0
2017-10-07T02:06:50.131Z,0
2017-10-07T02:07:51.530Z,0
2017-10-07T02:09:13.017Z,0
2017-10-07T02:10:14.417Z,0
2017-10-07T02:11:35.926Z,0
2017-10-07T02:12:37.329Z,0
2017-10-07T02:13:58.817Z,0
2017-10-07T02:15:00.308Z,0
2017-10-07T02:16:22.035Z,0
2017-10-07T02:17:23.448Z,0
2017-10-07T02:18:44.937Z,0
2017-10-07T02:19:46.338Z,0
2017-10-07T02:21:07.843Z,0
2017-10-07T02:22:09.243Z,0
2017-10-07T02:23:30.730Z,0
2017-10-07T02:24:32.127Z,0
2017-10-07T02:25:53.635Z,0
2017-10-07T02:26:55.036Z,0
2017-10-07T02:28:16.518Z,0
2017-10-07T02:29:17.919Z,0
2017-10-07T02:30:39.406Z,0
2017-10-07T02:31:40.805Z,0
2017-10-07T02:33:02.312Z,0
2017-10-07T02:34:03.715Z,0
2017-10-07T02:35:25.199Z,0
2017-10-07T02:36:26.598Z,0
2017-10-07T02:37:48.104Z,0
2017-10-07T02:38:49.509Z,0
2017-10-07T02:40:10.991Z,0
2017-10-07T02:41:12.391Z,0
2017-10-07T02:42:33.895Z,0
2017-10-07T02:43:35.297Z,0
2017-10-07T02:44:56.790Z,0
2017-10-07T02:45:58.186Z,0
2017-10-07T02:47:19.692Z,0
2017-10-07T02:48:21.093Z,0
2017-10-07T02:49:42.581Z,0
2017-10-07T02:50:43.980Z,0
2017-10-07T02:52:05.487Z,0
2017-10-07T02:53:06.888Z,0
2017-10-07T02:54:28.380Z,0
2017-10-07T02:55:29.787Z,0
2017-10-07T02:56:51.288Z,0
2017-10-07T02:57:52.692Z,0
2017-10-07T02:59:14.176Z,0
2017-10-07T03:00:15.577Z,0
2017-10-07T03:01:37.079Z,0
2017-10-07T03:02:38.477Z,0
2017-10-07T03:03:59.965Z,0
2017-10-07T03:05:01.364Z,0
2017-10-07T03:06:22.880Z,0
2017-10-07T03:07:24.276Z,0
2017-10-07T03:08:45.758Z,0
2017-10-07T03:09:47.157Z,0
2017-10-07T03:11:08.645Z,0
2017-10-07T03:12:10.044Z,0
2017-10-07T03:13:31.550Z,0
2017-10-07T03:14:32.952Z,0
2017-10-07T03:15:54.437Z,0
2017-10-07T03:16:55.833Z,0
2017-10-07T03:18:17.338Z,0
2017-10-07T03:19:18.736Z,0
2017-10-07T03:20:40.219Z,0
2017-10-07T03:21:41.620Z,0
2017-10-07T03:23:03.128Z,0
2017-10-07T03:24:04.530Z,0
2017-10-07T03:25:26.021Z,0
2017-10-07T03:26:27.415Z,0
2017-10-07T03:27:48.922Z,0
2017-10-07T03:28:50.324Z,0
2017-10-07T03:30:11.810Z,0
2017-10-07T03:31:13.209Z,0
2017-10-07T03:32:34.714Z,0
2017-10-07T03:33:36.113Z,0
2017-10-07T03:34:57.598Z,0
2017-10-07T03:35:58.999Z,0
2017-10-07T03:37:20.507Z,0
2017-10-07T03:38:21.905Z,0
2017-10-07T03:39:43.392Z,0
2017-10-07T03:40:44.792Z,0
2017-10-07T03:42:06.296Z,0
2017-10-07T03:43:07.697Z,0
2017-10-07T03:44:29.185Z,0
2017-10-07T03:45:30.586Z,0
2017-10-07T03:46:52.097Z,0
2017-10-07T03:47:53.496Z,0
2017-10-07T03:49:14.981Z,0
2017-10-07T03:50:16.380Z,0
2017-10-07T03:51:37.865Z,0
2017-10-07T03:52:39.266Z,0
2017-10-07T03:54:00.768Z,0
2017-10-07T03:55:02.169Z,0
2017-10-07T03:56:23.655Z,0
2017-10-07T03:57:25.054Z,0
2017-10-07T03:58:46.565Z,0
2017-10-07T03:59:47.965Z,0
2017-10-07T04:01:09.452Z,0
2017-10-07T04:02:10.852Z,0
2017-10-07T04:03:32.360Z,0
2017-10-07T04:04:33.763Z,0
2017-10-07T04:05:55.246Z,0
2017-10-07T04:06:56.647Z,0
2017-10-07T04:08:18.155Z,0
2017-10-07T04:09:19.556Z,0
2017-10-07T04:10:41.041Z,0
2017-10-07T04:11:42.441Z,0
2017-10-07T04:13:03.944Z,0
2017-10-07T04:14:05.344Z,0
2017-10-07T04:15:26.828Z,0
2017-10-07T04:16:28.233Z,0
2017-10-07T04:17:49.739Z,0
2017-10-07T04:18:51.148Z,0
2017-10-07T04:20:12.629Z,0
2017-10-07T04:21:14.032Z,0
2017-10-07T04:22:35.542Z,0
2017-10-07T04:23:36.942Z,0
2017-10-07T04:24:58.435Z,0
2017-10-07T04:25:59.824Z,0
2017-10-07T04:27:21.333Z,0
2017-10-07T04:28:22.732Z,0
2017-10-07T04:29:44.218Z,0
2017-10-07T04:30:45.619Z,0
2017-10-07T04:32:07.135Z,0
2017-10-07T04:33:08.536Z,0
2017-10-07T04:34:30.023Z,0
2017-10-07T04:35:31.422Z,0
2017-10-07T04:36:52.910Z,0
2017-10-07T04:37:54.307Z,0
2017-10-07T04:39:15.813Z,0
2017-10-07T04:40:17.219Z,0
2017-10-07T04:41:38.703Z,0
2017-10-07T04:42:40.105Z,0
2017-10-07T04:44:01.609Z,0
2017-10-07T04:45:03.009Z,0
2017-10-07T04:46:24.495Z,0
2017-10-07T04:47:25.894Z,0
2017-10-07T04:48:47.406Z,0
2017-10-07T04:49:48.803Z,0
2017-10-07T04:51:10.287Z,0
2017-10-07T04:52:11.688Z,0
2017-10-07T04:53:33.195Z,0
2017-10-07T04:54:34.593Z,0
2017-10-07T04:55:56.084Z,0
2017-10-07T04:56:57.480Z,0
2017-10-07T04:58:18.984Z,0
2017-10-07T04:59:20.817Z,0
2017-10-07T05:00:42.293Z,0
2017-10-07T05:01:43.692Z,0
2017-10-07T05:03:05.200Z,0
2017-10-07T05:04:06.598Z,0
2017-10-07T05:05:28.085Z,0
2017-10-07T05:06:29.482Z,0
2017-10-07T05:07:50.991Z,0
2017-10-07T05:08:52.393Z,0
2017-10-07T05:10:13.878Z,0
2017-10-07T05:11:15.277Z,0
2017-10-07T05:12:36.786Z,0
2017-10-07T05:13:38.186Z,0
2017-10-07T05:14:59.670Z,0
2017-10-07T05:16:01.072Z,0
2017-10-07T05:17:22.559Z,0
2017-10-07T05:18:23.958Z,0
2017-10-07T05:19:45.465Z,0
2017-10-07T05:20:46.871Z,0
2017-10-07T05:22:08.358Z,0
2017-10-07T05:23:09.758Z,0
2017-10-07T05:24:31.267Z,0
2017-10-07T05:25:32.669Z,0
2017-10-07T05:26:54.154Z,0
2017-10-07T05:27:55.553Z,0
2017-10-07T05:29:17.060Z,0
2017-10-07T05:30:18.462Z,0
2017-10-07T05:31:39.947Z,0
2017-10-07T05:32:41.347Z,0
2017-10-07T05:34:02.855Z,0
2017-10-07T05:35:04.272Z,0
2017-10-07T05:36:25.740Z,0
2017-10-07T05:37:27.140Z,0
2017-10-07T05:38:48.649Z,5
2017-10-07T05:39:50.053Z,5
2017-10-07T05:41:11.543Z,5
2017-10-07T05:42:12.940Z,5
2017-10-07T05:43:34.451Z,5
2017-10-07T05:44:35.852Z,5
2017-10-07T05:45:57.343Z,5
2017-10-07T05:46:58.742Z,5
2017-10-07T05:48:20.253Z,5
2017-10-07T05:49:21.657Z,5
2017-10-07T05:50:43.147Z,5
2017-10-07T05:51:44.545Z,11
2017-10-07T05:53:06.055Z,11
2017-10-07T05:54:07.461Z,11
2017-10-07T05:55:28.953Z,11
2017-10-07T05:56:30.355Z,11
2017-10-07T05:57:51.865Z,11
2017-10-07T05:58:53.267Z,11
2017-10-07T06:00:14.777Z,11
2017-10-07T06:01:16.182Z,11
2017-10-07T06:02:37.668Z,11
2017-10-07T06:03:39.074Z,11
2017-10-07T06:05:00.583Z,11
2017-10-07T06:06:01.990Z,11
2017-10-07T06:07:23.481Z,16
2017-10-07T06:08:24.885Z,16
2017-10-07T06:09:46.397Z,16
2017-10-07T06:10:47.802Z,16
2017-10-07T06:12:09.291Z,22
2017-10-07T06:13:10.693Z,22
2017-10-07T06:14:32.202Z,22
2017-10-07T06:15:33.606Z,22
2017-10-07T06:16:55.099Z,28
2017-10-07T06:17:56.501Z,28
2017-10-07T06:19:18.009Z,28
2017-10-07T06:20:19.411Z,22
2017-10-07T06:21:40.902Z,22
2017-10-07T06:22:42.303Z,22
2017-10-07T06:24:03.811Z,28
2017-10-07T06:25:05.217Z,28
2017-10-07T06:26:26.710Z,33
2017-10-07T06:27:28.114Z,39
2017-10-07T06:28:49.618Z,33
2017-10-07T06:29:51.022Z,33
2017-10-07T06:31:12.512Z,45
2017-10-07T06:32:13.914Z,45
2017-10-07T06:33:35.423Z,39
2017-10-07T06:34:36.828Z,33
2017-10-07T06:35:58.310Z,33
2017-10-07T06:36:59.713Z,33
2017-10-07T06:38:21.224Z,45
2017-10-07T06:39:22.630Z,50
2017-10-07T06:40:44.121Z,61
2017-10-07T06:41:45.523Z,61
2017-10-07T06:43:07.014Z,73
2017-10-07T06:44:08.419Z,73
2017-10-07T06:45:29.931Z,78
2017-10-07T06:46:31.337Z,78
2017-10-07T06:47:52.824Z,90
2017-10-07T06:48:54.230Z,112
2017-10-07T06:50:15.743Z,112
2017-10-07T06:51:17.148Z,129
2017-10-07T06:52:38.640Z,140
2017-10-07T06:53:40.045Z,135
2017-10-07T06:55:01.556Z,123
2017-10-07T06:56:02.962Z,118
2017-10-07T06:57:24.457Z,101
2017-10-07T06:58:25.865Z,101
2017-10-07T06:59:47.383Z,95
2017-10-07T07:00:48.782Z,95
2017-10-07T07:02:10.273Z,106
2017-10-07T07:03:11.682Z,123
2017-10-07T07:04:33.190Z,146
2017-10-07T07:05:34.604Z,163
2017-10-07T07:06:56.093Z,191
2017-10-07T07:07:57.496Z,225
2017-10-07T07:09:19.009Z,264
2017-10-07T07:10:20.414Z,281
2017-10-07T07:11:41.904Z,292
2017-10-07T07:12:43.311Z,286
2017-10-07T07:14:04.829Z,264
2017-10-07T07:15:06.240Z,241
2017-10-07T07:16:32.979Z,219
2017-10-07T07:17:34.375Z,202
2017-10-07T07:18:55.889Z,191
2017-10-07T07:19:57.296Z,185
2017-10-07T07:21:18.798Z,174
2017-10-07T07:22:20.203Z,168
2017-10-07T07:23:41.691Z,163
2017-10-07T07:24:43.096Z,163
2017-10-07T07:26:04.617Z,168
2017-10-07T07:27:06.021Z,174
2017-10-07T07:28:27.516Z,168
2017-10-07T07:29:28.922Z,163
2017-10-07T07:30:50.434Z,157
2017-10-07T07:31:51.841Z,157
2017-10-07T07:33:13.335Z,157
2017-10-07T07:34:14.738Z,151
2017-10-07T07:35:36.248Z,151
2017-10-07T07:36:37.657Z,157
2017-10-07T07:37:59.145Z,168
2017-10-07T07:39:00.552Z,174
2017-10-07T07:40:22.068Z,180
2017-10-07T07:41:23.473Z,185
2017-10-07T07:42:44.964Z,191
2017-10-07T07:43:46.367Z,191
2017-10-07T07:45:07.882Z,191
2017-10-07T07:46:09.291Z,185
2017-10-07T07:47:30.784Z,174
2017-10-07T07:48:32.188Z,168
2017-10-07T07:49:53.700Z,151
2017-10-07T07:50:55.105Z,140
2017-10-07T07:52:16.598Z,135
2017-10-07T07:53:18.003Z,135
2017-10-07T07:54:39.514Z,151
2017-10-07T07:55:40.919Z,163
2017-10-07T07:57:02.414Z,191
2017-10-07T07:58:03.820Z,208
2017-10-07T07:59:25.331Z,219
2017-10-07T08:00:26.739Z,225
2017-10-07T08:01:48.228Z,213
2017-10-07T08:02:49.636Z,202
2017-10-07T08:04:11.356Z,196
2017-10-07T08:05:12.773Z,202
2017-10-07T08:06:34.422Z,202
2017-10-07T08:07:35.835Z,202
2017-10-07T08:08:57.332Z,208
2017-10-07T08:09:58.740Z,202
2017-10-07T08:11:20.255Z,196
2017-10-07T08:12:21.660Z,191
2017-10-07T08:13:43.153Z,180
2017-10-07T08:14:44.584Z,163
2017-10-07T08:16:06.096Z,146
2017-10-07T08:17:07.503Z,151
2017-10-07T08:18:28.997Z,168
2017-10-07T08:19:30.402Z,191
2017-10-07T08:20:51.916Z,196
2017-10-07T08:21:53.323Z,180
2017-10-07T08:23:14.818Z,174
2017-10-07T08:24:16.226Z,185
2017-10-07T08:25:37.747Z,219
2017-10-07T08:26:39.151Z,247
2017-10-07T08:28:00.644Z,270
2017-10-07T08:29:02.050Z,286
2017-10-07T08:30:23.565Z,315
2017-10-07T08:31:24.973Z,337
2017-10-07T08:32:46.475Z,343
2017-10-07T08:33:47.881Z,331
2017-10-07T08:35:09.391Z,320
2017-10-07T08:36:10.805Z,326
2017-10-07T08:37:32.296Z,315
2017-10-07T08:38:33.733Z,315
2017-10-07T08:39:55.213Z,320
2017-10-07T08:40:56.621Z,320
2017-10-07T08:42:18.115Z,303
2017-10-07T08:43:19.521Z,292
2017-10-07T08:44:41.036Z,286
2017-10-07T08:45:42.445Z,292
2017-10-07T08:47:04.041Z,303
2017-10-07T08:48:05.448Z,309
2017-10-07T08:49:26.941Z,315
2017-10-07T08:50:28.349Z,315
2017-10-07T08:51:49.862Z,309
2017-10-07T08:52:51.578Z,303
2017-10-07T08:54:13.060Z,303
2017-10-07T08:55:14.467Z,309
2017-10-07T08:56:35.983Z,315
2017-10-07T08:57:37.389Z,320
2017-10-07T08:58:58.885Z,315
2017-10-07T09:00:00.291Z,298
2017-10-07T09:01:21.802Z,298
2017-10-07T09:02:23.211Z,292
2017-10-07T09:03:44.712Z,286
2017-10-07T09:04:46.120Z,286
2017-10-07T09:06:07.633Z,298
2017-10-07T09:07:09.041Z,315
2017-10-07T09:08:30.539Z,337
2017-10-07T09:09:31.946Z,354
2017-10-07T09:10:53.459Z,348
2017-10-07T09:11:54.870Z,348
2017-10-07T09:13:16.364Z,326
2017-10-07T09:14:17.774Z,309
2017-10-07T09:15:39.286Z,309
2017-10-07T09:16:40.694Z,309
2017-10-07T09:18:02.271Z,309
2017-10-07T09:19:03.679Z,286
2017-10-07T09:20:25.199Z,258
2017-10-07T09:21:26.609Z,230
2017-10-07T09:22:48.106Z,202
2017-10-07T09:23:49.513Z,196
2017-10-07T09:25:11.029Z,180
2017-10-07T09:26:12.437Z,180
2017-10-07T09:27:33.938Z,191
2017-10-07T09:28:35.369Z,208
2017-10-07T09:29:56.870Z,225
2017-10-07T09:30:58.278Z,225
2017-10-07T09:32:19.772Z,230
2017-10-07T09:33:21.180Z,236
2017-10-07T09:34:42.676Z,241
2017-10-07T09:35:44.084Z,253
2017-10-07T09:37:05.596Z,258
2017-10-07T09:38:07.005Z,258
2017-10-07T09:39:28.503Z,264
2017-10-07T09:40:29.908Z,270
2017-10-07T09:41:51.422Z,264
2017-10-07T09:42:52.829Z,270
2017-10-07T09:44:14.325Z,270
2017-10-07T09:45:15.732Z,253
2017-10-07T09:46:37.247Z,225
2017-10-07T09:47:38.656Z,247
2017-10-07T09:49:00.151Z,258
2017-10-07T09:50:01.554Z,258
2017-10-07T09:51:23.072Z,258
2017-10-07T09:52:24.481Z,253
2017-10-07T09:53:45.977Z,230
2017-10-07T09:54:47.384Z,219
2017-10-07T09:56:08.896Z,208
2017-10-07T09:57:10.303Z,191
2017-10-07T09:58:31.803Z,163
2017-10-07T09:59:33.212Z,168
2017-10-07T10:00:54.721Z,196
2017-10-07T10:01:56.127Z,213
2017-10-07T10:03:17.620Z,230
2017-10-07T10:04:19.029Z,230
2017-10-07T10:05:40.546Z,208
2017-10-07T10:06:41.954Z,168
2017-10-07T10:08:03.447Z,185
2017-10-07T10:09:04.850Z,129
2017-10-07T10:10:26.369Z,129
2017-10-07T10:11:27.778Z,129
2017-10-07T10:12:49.279Z,129
2017-10-07T10:13:50.683Z,146
2017-10-07T10:15:12.176Z,135
2017-10-07T10:16:13.581Z,174
2017-10-07T10:17:35.094Z,213
2017-10-07T10:18:36.501Z,208
2017-10-07T10:19:57.992Z,151
2017-10-07T10:20:59.397Z,163
2017-10-07T10:22:20.909Z,174
2017-10-07T10:23:22.317Z,157
2017-10-07T10:24:43.809Z,146
2017-10-07T10:25:45.214Z,157
2017-10-07T10:27:06.727Z,146
2017-10-07T10:28:08.135Z,129
2017-10-07T10:29:29.634Z,129
2017-10-07T10:30:31.040Z,151
2017-10-07T10:31:52.550Z,151
2017-10-07T10:32:53.959Z,118
2017-10-07T10:34:15.458Z,191
2017-10-07T10:35:16.860Z,230
2017-10-07T10:36:38.370Z,180
2017-10-07T10:37:39.777Z,185
2017-10-07T10:39:01.269Z,202
2017-10-07T10:40:02.676Z,270
2017-10-07T10:41:24.188Z,320
2017-10-07T10:42:25.594Z,264
2017-10-07T10:43:47.090Z,320
2017-10-07T10:44:48.496Z,303
2017-10-07T10:46:10.011Z,258
2017-10-07T10:47:11.417Z,236
2017-10-07T10:48:32.913Z,258
2017-10-07T10:49:34.318Z,275
2017-10-07T10:50:55.832Z,275
2017-10-07T10:51:57.240Z,275
2017-10-07T10:53:18.734Z,258
2017-10-07T10:54:20.140Z,236
2017-10-07T10:55:41.638Z,202
2017-10-07T10:56:43.043Z,185
2017-10-07T10:58:04.555Z,196
2017-10-07T10:59:05.966Z,191
2017-10-07T11:00:27.456Z,230
2017-10-07T11:01:28.866Z,202
2017-10-07T11:02:50.385Z,129
2017-10-07T11:03:51.793Z,151
2017-10-07T11:05:13.294Z,157
2017-10-07T11:06:14.699Z,140
2017-10-07T11:07:36.213Z,123
2017-10-07T11:08:37.623Z,123
2017-10-07T11:09:59.117Z,118
2017-10-07T11:11:00.522Z,112
2017-10-07T11:12:22.035Z,129
2017-10-07T11:13:23.444Z,106
2017-10-07T11:14:44.942Z,112
2017-10-07T11:15:46.347Z,123
2017-10-07T11:17:07.865Z,123
2017-10-07T11:18:09.272Z,146
2017-10-07T11:19:31.258Z,135
2017-10-07T11:20:32.665Z,151
2017-10-07T11:21:54.179Z,163
2017-10-07T11:22:55.679Z,106
2017-10-07T11:24:17.745Z,123
2017-10-07T11:25:19.153Z,129
2017-10-07T11:26:40.665Z,78
2017-10-07T11:27:42.073Z,112
2017-10-07T11:29:03.564Z,95
2017-10-07T11:30:04.968Z,90
2017-10-07T11:31:26.482Z,112
2017-10-07T11:32:27.890Z,112
2017-10-07T11:33:49.383Z,118
2017-10-07T11:34:50.790Z,146
2017-10-07T11:36:12.304Z,157
2017-10-07T11:37:13.715Z,174
2017-10-07T11:38:35.208Z,123
2017-10-07T11:39:36.611Z,123
2017-10-07T11:40:58.110Z,118
2017-10-07T11:41:59.597Z,118
2017-10-07T11:43:21.332Z,101
2017-10-07T11:44:22.737Z,101
2017-10-07T11:45:44.234Z,123
2017-10-07T11:46:45.637Z,101
2017-10-07T11:48:07.152Z,106
2017-10-07T11:49:08.557Z,106
2017-10-07T11:50:30.452Z,135
2017-10-07T11:51:31.864Z,157
2017-10-07T11:52:53.380Z,163
2017-10-07T11:53:54.786Z,163
2017-10-07T11:55:16.279Z,129
2017-10-07T11:56:17.684Z,106
2017-10-07T11:57:39.192Z,101
2017-10-07T11:58:40.600Z,90
2017-10-07T12:00:02.096Z,95
2017-10-07T12:01:03.499Z,90
2017-10-07T12:02:25.033Z,90
2017-10-07T12:03:26.436Z,84
2017-10-07T12:04:48.152Z,90
2017-10-07T12:05:49.627Z,73
2017-10-07T12:07:11.165Z,78
2017-10-07T12:08:12.818Z,73
2017-10-07T12:09:35.759Z,73
2017-10-07T12:10:37.336Z,73
2017-10-07T12:12:00.936Z,67
2017-10-07T12:13:02.431Z,95
2017-10-07T12:14:23.934Z,123
2017-10-07T12:15:25.344Z,129
2017-10-07T12:16:46.860Z,90
2017-10-07T12:17:48.265Z,95
2017-10-07T12:19:09.765Z,73
2017-10-07T12:20:11.598Z,78
2017-10-07T12:21:33.086Z,78
2017-10-07T12:22:34.493Z,101
2017-10-07T12:23:55.980Z,78
2017-10-07T12:24:57.430Z,84
2017-10-07T12:26:19.339Z,95
2017-10-07T12:27:21.088Z,90
2017-10-07T12:28:44.928Z,90
2017-10-07T12:29:46.348Z,73
2017-10-07T12:31:07.847Z,78
2017-10-07T12:32:09.250Z,95
2017-10-07T12:33:30.765Z,67
2017-10-07T12:34:32.170Z,84
2017-10-07T12:35:53.658Z,101
2017-10-07T12:36:55.583Z,95
2017-10-07T12:38:17.111Z,90
2017-10-07T12:39:18.517Z,95
2017-10-07T12:40:40.017Z,78
2017-10-07T12:41:41.420Z,101
2017-10-07T12:43:02.998Z,78
2017-10-07T12:44:04.462Z,84
2017-10-07T12:45:26.041Z,67
2017-10-07T12:46:27.788Z,67
2017-10-07T12:47:49.400Z,61
2017-10-07T12:48:50.843Z,61
2017-10-07T12:50:12.400Z,90
2017-10-07T12:51:13.837Z,95
2017-10-07T12:52:35.593Z,90
2017-10-07T12:53:36.987Z,90
2017-10-07T12:54:58.478Z,90
2017-10-07T12:55:59.916Z,67
2017-10-07T12:57:21.440Z,78
2017-10-07T12:58:22.900Z,73
2017-10-07T12:59:44.480Z,78
2017-10-07T13:00:45.983Z,95
2017-10-07T13:02:07.500Z,90
2017-10-07T13:03:09.425Z,90
2017-10-07T13:04:31.084Z,73
2017-10-07T13:05:32.492Z,84
2017-10-07T13:06:54.009Z,90
2017-10-07T13:07:55.411Z,101
2017-10-07T13:09:17.399Z,78
2017-10-07T13:10:18.804Z,101
2017-10-07T13:11:40.791Z,106
2017-10-07T13:12:42.219Z,118
2017-10-07T13:14:03.732Z,118
2017-10-07T13:15:05.142Z,101
2017-10-07T13:16:26.658Z,106
2017-10-07T13:17:28.038Z,106
2017-10-07T13:18:50.296Z,118
2017-10-07T13:19:51.741Z,101
2017-10-07T13:21:13.241Z,90
2017-10-07T13:22:14.647Z,106
2017-10-07T13:23:36.154Z,90
2017-10-07T13:24:37.563Z,61
2017-10-07T13:25:59.058Z,61
2017-10-07T13:27:00.462Z,95
2017-10-07T13:28:21.969Z,112
2017-10-07T13:29:23.374Z,112
2017-10-07T13:30:44.873Z,118
2017-10-07T13:31:46.278Z,140
2017-10-07T13:33:07.789Z,112
2017-10-07T13:34:09.190Z,95
2017-10-07T13:35:30.683Z,90
2017-10-07T13:36:32.110Z,78
2017-10-07T13:37:53.632Z,112
2017-10-07T13:38:55.039Z,123
2017-10-07T13:40:16.538Z,118
2017-10-07T13:41:17.940Z,174
2017-10-07T13:42:39.450Z,101
2017-10-07T13:43:40.856Z,84
2017-10-07T13:45:02.345Z,84
2017-10-07T13:46:03.750Z,118
2017-10-07T13:47:25.263Z,90
2017-10-07T13:48:27.327Z,78
2017-10-07T13:49:48.838Z,61
2017-10-07T13:50:50.250Z,78
2017-10-07T13:52:11.780Z,78
2017-10-07T13:53:13.183Z,101
2017-10-07T13:54:34.673Z,73
2017-10-07T13:55:36.078Z,61
2017-10-07T13:56:57.571Z,56
2017-10-07T13:57:58.975Z,73
2017-10-07T13:59:20.491Z,84
2017-10-07T14:00:21.896Z,84
2017-10-07T14:01:43.410Z,84
2017-10-07T14:02:44.814Z,73
2017-10-07T14:04:06.323Z,73
2017-10-07T14:05:07.730Z,73
2017-10-07T14:06:29.225Z,67
2017-10-07T14:07:30.629Z,61
2017-10-07T14:08:52.140Z,67
2017-10-07T14:09:53.546Z,90
2017-10-07T14:11:15.040Z,78
2017-10-07T14:12:16.445Z,101
2017-10-07T14:13:37.953Z,67
2017-10-07T14:14:39.365Z,84
2017-10-07T14:16:00.853Z,90
2017-10-07T14:17:02.258Z,90
2017-10-07T14:18:23.789Z,129
2017-10-07T14:19:25.193Z,67
2017-10-07T14:20:46.685Z,106
2017-10-07T14:21:48.155Z,95
2017-10-07T14:23:10.076Z,101
2017-10-07T14:24:11.841Z,84
2017-10-07T14:25:33.382Z,84
2017-10-07T14:26:34.846Z,56
2017-10-07T14:27:57.930Z,73
2017-10-07T14:28:59.336Z,67
2017-10-07T14:30:20.861Z,73
2017-10-07T14:31:22.268Z,73
2017-10-07T14:32:43.860Z,56
2017-10-07T14:33:45.407Z,67
2017-10-07T14:35:07.237Z,84
2017-10-07T14:36:08.645Z,73
2017-10-07T14:37:30.262Z,45
2017-10-07T14:38:31.700Z,50
2017-10-07T14:39:53.279Z,45
2017-10-07T14:40:54.681Z,45
2017-10-07T14:42:16.254Z,61
2017-10-07T14:43:17.673Z,61
2017-10-07T14:44:39.193Z,67
2017-10-07T14:45:40.642Z,39
2017-10-07T14:47:02.839Z,39
2017-10-07T14:48:04.246Z,33
2017-10-07T14:49:25.818Z,33
2017-10-07T14:50:27.231Z,28
2017-10-07T14:51:48.756Z,45
2017-10-07T14:52:50.160Z,33
2017-10-07T14:54:12.299Z,33
2017-10-07T14:55:13.705Z,28
2017-10-07T14:56:35.286Z,33
2017-10-07T14:57:36.689Z,33
2017-10-07T14:58:58.419Z,28
2017-10-07T14:59:59.929Z,28
2017-10-07T15:01:21.483Z,22
2017-10-07T15:02:22.952Z,28
2017-10-07T15:03:44.565Z,33
2017-10-07T15:04:45.973Z,33
2017-10-07T15:06:07.502Z,45
2017-10-07T15:07:08.906Z,33
2017-10-07T15:08:30.958Z,33
2017-10-07T15:09:32.362Z,22
2017-10-07T15:10:55.724Z,28
2017-10-07T15:11:57.146Z,22
2017-10-07T15:13:18.701Z,22
2017-10-07T15:14:20.572Z,22
2017-10-07T15:15:42.143Z,22
2017-10-07T15:16:43.550Z,33
2017-10-07T15:18:05.631Z,22
2017-10-07T15:19:07.039Z,22
2017-10-07T15:20:29.069Z,28
2017-10-07T15:21:30.475Z,22
2017-10-07T15:22:52.022Z,28
2017-10-07T15:23:53.773Z,16
2017-10-07T15:25:15.399Z,16
2017-10-07T15:26:16.801Z,22
2017-10-07T15:27:38.334Z,16
2017-10-07T15:28:39.738Z,16
2017-10-07T15:30:01.328Z,16
2017-10-07T15:31:02.729Z,22
2017-10-07T15:32:24.235Z,22
2017-10-07T15:33:25.640Z,16
2017-10-07T15:34:47.208Z,16
2017-10-07T15:35:48.631Z,16
2017-10-07T15:37:11.731Z,11
2017-10-07T15:38:13.175Z,16
2017-10-07T15:39:34.878Z,16
2017-10-07T15:40:36.288Z,22
2017-10-07T15:41:59.323Z,11
2017-10-07T15:43:00.728Z,16
2017-10-07T15:44:22.284Z,11
2017-10-07T15:45:23.688Z,11
2017-10-07T15:46:45.380Z,11
2017-10-07T15:47:46.794Z,5
2017-10-07T15:49:08.391Z,5
2017-10-07T15:50:09.795Z,5
2017-10-07T15:51:31.323Z,11
2017-10-07T15:52:32.729Z,11
2017-10-07T15:53:54.723Z,11
2017-10-07T15:54:56.136Z,11
2017-10-07T15:56:17.736Z,11
2017-10-07T15:57:19.141Z,11
2017-10-07T15:58:41.143Z,16
2017-10-07T15:59:42.565Z,11
2017-10-07T16:01:04.180Z,11
2017-10-07T16:02:05.586Z,11
2017-10-07T16:03:27.635Z,11
2017-10-07T16:04:29.038Z,11
2017-10-07T16:05:50.562Z,5
2017-10-07T16:06:51.965Z,5
2017-10-07T16:08:13.516Z,5
2017-10-07T16:09:14.917Z,5
2017-10-07T16:10:36.486Z,5
2017-10-07T16:11:37.888Z,5
2017-10-07T16:12:59.420Z,5
2017-10-07T16:14:00.839Z,5
2017-10-07T16:15:22.381Z,5
2017-10-07T16:16:23.786Z,5
2017-10-07T16:17:45.313Z,5
2017-10-07T16:18:46.716Z,5
2017-10-07T16:20:08.291Z,5
2017-10-07T16:21:09.696Z,5
2017-10-07T16:22:31.753Z,5
2017-10-07T16:23:33.153Z,5
2017-10-07T16:24:54.701Z,5
2017-10-07T16:25:56.106Z,5
2017-10-07T16:27:17.631Z,5
2017-10-07T16:28:19.033Z,5
2017-10-07T16:29:40.607Z,5
2017-10-07T16:30:42.009Z,0
2017-10-07T16:32:03.533Z,5
2017-10-07T16:33:04.934Z,0
2017-10-07T16:34:26.501Z,0
2017-10-07T16:35:27.904Z,0
2017-10-07T16:36:49.696Z,0
2017-10-07T16:37:51.100Z,0
2017-10-07T16:39:12.844Z,0
2017-10-07T16:40:14.244Z,0
2017-10-07T16:41:35.885Z,0
2017-10-07T16:42:37.287Z,0
2017-10-07T16:44:01.906Z,0
2017-10-07T19:23:57.303Z,0
2017-10-07T19:24:58.580Z,0
2017-10-07T19:26:20.559Z,0
2017-10-07T19:27:21.831Z,0
2017-10-07T19:28:43.286Z,0
2017-10-07T19:29:44.556Z,0
2017-10-07T19:31:06.052Z,0
2017-10-07T19:32:07.350Z,0
2017-10-07T19:33:28.779Z,0
2017-10-07T19:34:30.051Z,0
2017-10-07T19:35:51.545Z,0
2017-10-07T19:36:52.814Z,0
2017-10-07T19:38:14.275Z,0
2017-10-07T19:39:15.550Z,0
2017-10-07T19:40:37.020Z,0